Crossroads Center, Iowa
Current Conditions -  °F | °C
As of 6:15 PM on Wednesday 22 Oct 2014 (Local Time) from KFOD Reporting Station
Clear Clear  
Wind Chill: 16°   Ceiling: Unl
Heat Index: 16°   Visibility: 10mi
Dew Point:   Wind: 12mph
Humidity: 55%   Direction: 160°SSE
Pressure: 30.07"   Gusts: 22mph
Location:  42.5075°N, 94.2531°W
Report Text: KFOD 222315Z AUTO 16010G19KT 10SM CLR 16/07 A3007 RMK AO1
Loading
Personal Weather Stations






























Interactive Weather Map
Tropical Storm Tracking
New forecast layout! Learn more

10-Day Weather Forecast

Advertisements
Track Severe Weather on mobile